»·PEaware :: N22SF KJFK-KEWR

N22SF :: KJFK-KEWR

FLIGHT INFORMATION

Flight Status: Arrived
Operator: Privately registered:
United States
More flights under this callsign
Pilot: Anonymous 18904 (18904)
Aircraft: CANADAIR CL-600 CHALLENGER
(CL60)
More flights by this aircraft type
Origin: KJFK Kennedy Intl
United States
Destination: KEWR Newark Intl
United States
More flights between these airports :: More routes between these airports
Route: JFK V16 DIXIE V276 RBV V249 SBJ
File this flight plan on PilotEdge
Remarks:
Altitude:
(Current/Filed)
6,000ft
Speed:
(Current/Filed)
275kts
Departed: 07-Dec-22 11:06 AM
Arrived: 07-Dec-22 12:07 PM
Distance/Time
Traveled:
18nm/1:01
Distance/Time
To Go:
Arrived

Flight Plot

Page will automatically refresh every two minutes.

Flight plan parsing failed; only flown route is shown


Map Options




Map Legend


Flown Route
Filed Route
Departure Airport
Arrival Airport
Navaid (VOR, NDB)
Fix

Horizontal Profiles

Position Reports

Time Latitude Longitude Heading Altitude Ground
Speed
07-Dec-22 10:38 40.648864 -73.810241 332 20ft 0kts
07-Dec-22 10:39 40.648864 -73.810241 332 20ft 0kts
07-Dec-22 10:40 40.648864 -73.810241 332 20ft 0kts
07-Dec-22 10:41 40.648864 -73.810241 332 20ft 0kts
07-Dec-22 10:42 40.648864 -73.810241 332 20ft 0kts
07-Dec-22 10:43 40.648864 -73.810241 332 20ft 0kts
07-Dec-22 10:44 40.648864 -73.810241 332 20ft 0kts
07-Dec-22 10:45 40.648864 -73.810241 332 20ft 0kts
07-Dec-22 10:46 40.648864 -73.810241 332 20ft 0kts
07-Dec-22 10:47 40.648864 -73.810241 332 20ft 0kts
07-Dec-22 10:48 40.648864 -73.810241 332 20ft 0kts
07-Dec-22 10:49 40.648864 -73.810241 332 20ft 0kts
07-Dec-22 10:50 40.648864 -73.810241 332 20ft 0kts
07-Dec-22 10:51 40.648864 -73.810241 332 20ft 0kts
07-Dec-22 10:52 40.648864 -73.810241 332 20ft 0kts
07-Dec-22 10:53 40.648864 -73.810241 332 20ft 0kts
07-Dec-22 10:54 40.648864 -73.810241 332 20ft 0kts
07-Dec-22 10:55 40.648864 -73.810241 332 20ft 0kts
07-Dec-22 10:56 40.648864 -73.810241 332 20ft 0kts
07-Dec-22 10:57 40.648864 -73.810241 332 20ft 0kts
07-Dec-22 10:58 40.648967 -73.810272 351 20ft 0kts
07-Dec-22 10:59 40.649586 -73.811888 234 20ft 2kts
07-Dec-22 11:00 40.650154 -73.814638 299 20ft 6kts
07-Dec-22 11:01 40.649709 -73.815460 207 20ft 3kts
07-Dec-22 11:02 40.649289 -73.815775 210 20ft 4kts
07-Dec-22 11:03 40.648924 -73.816059 210 20ft 6kts
07-Dec-22 11:04 40.648000 -73.815912 120 20ft 0kts
07-Dec-22 11:05 40.620770 -73.780877 165 1643ft 208kts
07-Dec-22 11:06 40.565783 -73.768307 198 4064ft 209kts
07-Dec-22 11:07 40.519931 -73.826721 228 3932ft 242kts
07-Dec-22 11:08 40.472590 -73.893065 228 4736ft 246kts
07-Dec-22 11:09 40.416177 -73.945526 211 5601ft 253kts
07-Dec-22 11:10 40.358784 -73.996867 244 5978ft 248kts
07-Dec-22 11:11 40.331696 -74.080623 247 4998ft 245kts
07-Dec-22 11:12 40.307724 -74.157257 247 4033ft 205kts
07-Dec-22 11:13 40.315898 -74.219510 326 3079ft 215kts
07-Dec-22 11:14 40.371613 -74.252881 344 3003ft 226kts
07-Dec-22 11:15 40.434603 -74.263423 347 3001ft 228kts
07-Dec-22 11:16 40.497997 -74.273998 347 3001ft 228kts
07-Dec-22 11:17 40.559350 -74.249915 24 2840ft 242kts
07-Dec-22 11:18 40.617005 -74.212616 25 1410ft 212kts
07-Dec-22 11:19 40.660297 -74.185219 27 480ft 137kts
07-Dec-22 11:20 40.696622 -74.163158 27 1289ft 182kts
07-Dec-22 11:21 40.741169 -74.115810 46 2533ft 217kts
07-Dec-22 11:22 40.795232 -74.079494 5 2992ft 223kts
07-Dec-22 11:23 40.856716 -74.088678 328 2977ft 221kts
07-Dec-22 11:24 40.862211 -74.156445 257 3003ft 199kts
07-Dec-22 11:25 40.845327 -74.225462 214 3014ft 222kts
07-Dec-22 11:26 40.784355 -74.263556 207 2993ft 244kts
07-Dec-22 11:27 40.722397 -74.301006 207 3001ft 244kts
07-Dec-22 11:28 40.668890 -74.341578 217 3018ft 201kts
07-Dec-22 11:29 40.621660 -74.381281 189 2977ft 205kts
07-Dec-22 11:30 40.564802 -74.359943 167 2995ft 205kts
07-Dec-22 11:31 40.520281 -74.327160 106 2876ft 205kts
07-Dec-22 11:32 40.545463 -74.261063 57 2076ft 200kts
07-Dec-22 11:33 40.590924 -74.227903 16 1942ft 163kts
07-Dec-22 11:34 40.628766 -74.205183 26 1155ft 141kts
07-Dec-22 11:35 40.663677 -74.183159 27 421ft 135kts
07-Dec-22 11:36 40.699746 -74.155409 48 1797ft 195kts
07-Dec-22 11:37 40.757800 -74.120388 347 2629ft 279kts
07-Dec-22 11:38 40.832074 -74.137951 325 2966ft 248kts
07-Dec-22 11:39 40.838087 -74.205392 253 3010ft 188kts
07-Dec-22 11:40 40.794669 -74.241753 207 3004ft 192kts
07-Dec-22 11:41 40.745366 -74.270389 207 3001ft 192kts
07-Dec-22 11:42 40.696236 -74.298934 207 3001ft 192kts
07-Dec-22 11:43 40.647015 -74.327538 207 3001ft 192kts
07-Dec-22 11:44 40.597880 -74.356102 207 3001ft 192kts
07-Dec-22 11:45 40.548861 -74.338196 147 3030ft 195kts
07-Dec-22 11:46 40.537242 -74.278446 56 3020ft 212kts
07-Dec-22 11:47 40.577064 -74.237981 20 2333ft 156kts
07-Dec-22 11:48 40.615031 -74.213993 24 1469ft 147kts
07-Dec-22 11:49 40.650602 -74.191425 27 704ft 137kts
07-Dec-22 11:50 40.686458 -74.168154 28 1347ft 185kts
07-Dec-22 11:51 40.730952 -74.120666 65 2683ft 213kts
07-Dec-22 11:52 40.780695 -74.092284 347 3002ft 216kts
07-Dec-22 11:53 40.819626 -74.129143 258 3020ft 187kts
07-Dec-22 11:54 40.809682 -74.197733 251 2997ft 188kts
07-Dec-22 11:55 40.775166 -74.249883 227 3001ft 188kts
07-Dec-22 11:56 40.726778 -74.283867 207 2998ft 202kts
07-Dec-22 11:57 40.675037 -74.314356 207 3001ft 202kts
07-Dec-22 11:58 40.623270 -74.344875 207 3001ft 202kts
07-Dec-22 11:59 40.571444 -74.359642 167 3040ft 185kts
07-Dec-22 12:00 40.522827 -74.336957 157 2993ft 187kts
07-Dec-22 12:01 40.531293 -74.272459 46 2798ft 210kts
07-Dec-22 12:02 40.580565 -74.235843 22 2204ft 200kts
07-Dec-22 12:03 40.629418 -74.204877 26 1138ft 173kts
07-Dec-22 12:04 40.665889 -74.181678 27 369ft 135kts
07-Dec-22 12:05 40.693289 -74.164241 21 26ft 46kts
07-Dec-22 12:06 40.696173 -74.165394 296 26ft 11kts
07-Dec-22 12:07 40.696807 -74.167074 298 26ft 1kts
07-Dec-22 12:08 40.697873 -74.167940 25 26ft 16kts
07-Dec-22 12:09 40.702320 -74.167229 5 26ft 16kts
07-Dec-22 12:10 40.705074 -74.168512 326 26ft 14kts
07-Dec-22 12:11 40.706026 -74.169639 359 26ft 0kts
07-Dec-22 12:12 40.706026 -74.169639 359 26ft 0kts
07-Dec-22 12:13 40.706026 -74.169639 359 26ft 0kts
07-Dec-22 12:14 40.706026 -74.169639 359 26ft 0kts

Navigation Log

Ident Type
Flight plan parsing failed, navigation log unavailable